createdAt,value
2022-08-27T00:01:34.482Z,18.73
2022-08-27T00:05:31.528Z,18.56
2022-08-27T00:09:30.067Z,18.48
2022-08-27T00:13:27.306Z,18.65
2022-08-27T00:17:24.706Z,18.78
2022-08-27T00:21:23.065Z,18.83
2022-08-27T00:25:21.145Z,18.71
2022-08-27T00:29:18.123Z,18.74
2022-08-27T00:33:15.179Z,18.64
2022-08-27T00:37:12.387Z,18.69
2022-08-27T00:41:12.487Z,18.73
2022-08-27T00:45:18.898Z,18.54
2022-08-27T00:49:45.559Z,18.55
2022-08-27T00:53:42.874Z,18.54
2022-08-27T00:57:43.352Z,18.48
2022-08-27T01:02:00.829Z,18.59
2022-08-27T01:06:01.884Z,18.44
2022-08-27T01:10:14.378Z,18.60
2022-08-27T01:14:11.506Z,18.52
2022-08-27T01:18:12.374Z,18.68
2022-08-27T01:22:33.666Z,18.96
2022-08-27T01:26:32.225Z,19.10
2022-08-27T01:30:30.051Z,19.26
2022-08-27T01:34:27.199Z,19.27
2022-08-27T01:38:30.926Z,19.30
2022-08-27T01:42:31.890Z,19.12
2022-08-27T01:46:29.387Z,18.86
2022-08-27T01:50:37.194Z,19.11
2022-08-27T01:54:34.499Z,18.97
2022-08-27T01:58:33.527Z,18.92
2022-08-27T02:02:30.583Z,18.93
2022-08-27T02:06:27.644Z,18.97
2022-08-27T02:10:30.287Z,18.95
2022-08-27T02:14:28.800Z,18.89
2022-08-27T02:18:25.931Z,19.01
2022-08-27T02:22:24.530Z,19.02
2022-08-27T02:26:22.983Z,19.10
2022-08-27T02:30:24.203Z,19.29
2022-08-27T02:34:21.213Z,19.19
2022-08-27T02:38:18.226Z,19.19
2022-08-27T02:42:15.378Z,19.21
2022-08-27T02:46:13.217Z,19.12
2022-08-27T02:50:12.202Z,19.11
2022-08-27T02:54:09.846Z,19.21
2022-08-27T02:58:06.931Z,19.12
2022-08-27T03:02:04.974Z,19.06
2022-08-27T03:06:02.136Z,19.17
2022-08-27T03:09:59.285Z,19.09
2022-08-27T03:13:57.825Z,18.98
2022-08-27T03:18:13.207Z,19.18
2022-08-27T03:22:11.580Z,19.05
2022-08-27T03:26:12.123Z,19.21
2022-08-27T03:30:16.060Z,19.28
2022-08-27T03:34:13.426Z,19.08
2022-08-27T03:38:10.464Z,19.07
2022-08-27T03:42:07.675Z,19.09
2022-08-27T03:46:05.166Z,19.07
2022-08-27T03:50:03.939Z,19.30
2022-08-27T03:54:00.945Z,19.34
2022-08-27T03:57:59.732Z,19.34
2022-08-27T04:01:57.384Z,19.33
2022-08-27T04:05:57.331Z,19.50
2022-08-27T04:09:54.345Z,19.37
2022-08-27T04:13:51.567Z,19.39
2022-08-27T04:17:48.899Z,19.47
2022-08-27T04:21:45.966Z,19.48
2022-08-27T04:25:45.219Z,19.46
2022-08-27T04:29:42.649Z,19.34
2022-08-27T04:33:39.739Z,19.21
2022-08-27T04:37:37.053Z,19.26
2022-08-27T04:41:34.387Z,19.43
2022-08-27T04:45:31.427Z,19.34
2022-08-27T04:49:31.228Z,19.31
2022-08-27T04:53:30.586Z,19.39
2022-08-27T04:57:27.971Z,19.31
2022-08-27T05:01:28.898Z,19.29
2022-08-27T05:05:28.703Z,19.24
2022-08-27T05:09:26.821Z,19.28
2022-08-27T05:13:24.589Z,19.02
2022-08-27T05:17:22.046Z,19.25
2022-08-27T05:21:34.786Z,19.50
2022-08-27T05:25:31.826Z,19.75
2022-08-27T05:29:28.919Z,19.73
2022-08-27T05:33:26.100Z,19.73
2022-08-27T05:37:23.152Z,19.81
2022-08-27T05:41:25.652Z,19.85
2022-08-27T05:45:32.255Z,19.87
2022-08-27T05:49:29.314Z,20.11
2022-08-27T05:53:26.523Z,20.27
2022-08-27T05:57:23.630Z,20.33
2022-08-27T06:01:23.869Z,20.34
2022-08-27T06:05:21.185Z,20.37
2022-08-27T06:09:26.962Z,20.52
2022-08-27T06:13:24.516Z,20.63
2022-08-27T06:17:21.717Z,20.84
2022-08-27T06:21:24.652Z,20.98
2022-08-27T06:25:22.031Z,21.00
2022-08-27T06:29:19.270Z,20.97
2022-08-27T06:33:17.208Z,20.99
2022-08-27T06:37:14.264Z,20.89
2022-08-27T06:41:16.217Z,20.90
2022-08-27T06:45:13.717Z,20.83
2022-08-27T06:49:12.633Z,20.79
2022-08-27T06:53:10.124Z,20.89
2022-08-27T06:57:08.032Z,20.65
2022-08-27T07:01:18.316Z,20.58
2022-08-27T07:05:19.504Z,20.66
2022-08-27T07:09:17.421Z,20.40
2022-08-27T07:13:14.504Z,20.86
2022-08-27T07:17:16.397Z,20.79
2022-08-27T07:21:13.607Z,21.20
2022-08-27T07:25:15.992Z,21.19
2022-08-27T07:29:15.250Z,21.23
2022-08-27T07:33:12.414Z,20.99
2022-08-27T07:37:09.485Z,21.06
2022-08-27T07:41:15.398Z,21.36
2022-08-27T07:45:12.385Z,21.42
2022-08-27T07:49:09.365Z,21.18
2022-08-27T07:53:07.642Z,21.08
2022-08-27T07:57:05.050Z,20.96
2022-08-27T08:01:02.676Z,20.78
2022-08-27T08:05:00.018Z,20.66
2022-08-27T08:08:57.048Z,20.69
2022-08-27T08:12:54.238Z,20.76
2022-08-27T08:16:51.283Z,21.08
2022-08-27T08:20:58.143Z,21.13
2022-08-27T08:24:55.894Z,21.16
2022-08-27T08:28:52.910Z,21.18
2022-08-27T08:32:49.939Z,21.32
2022-08-27T08:36:52.412Z,21.34
2022-08-27T08:40:54.699Z,21.24
2022-08-27T08:44:53.773Z,21.54
2022-08-27T08:49:01.282Z,21.38
2022-08-27T08:53:47.239Z,21.96
2022-08-27T08:58:12.178Z,22.22
2022-08-27T09:02:14.610Z,22.66
2022-08-27T09:06:25.871Z,22.95
2022-08-27T09:10:38.442Z,23.14
2022-08-27T09:14:53.971Z,22.75
2022-08-27T09:18:52.635Z,22.59
2022-08-27T09:23:22.050Z,22.67
2022-08-27T09:27:22.297Z,22.89
2022-08-27T09:31:21.247Z,22.82
2022-08-27T09:35:18.795Z,22.87
2022-08-27T09:39:16.610Z,22.97
2022-08-27T09:43:17.015Z,23.50
2022-08-27T09:47:16.013Z,24.01
2022-08-27T09:51:30.129Z,24.26
2022-08-27T09:55:47.256Z,24.46
2022-08-27T09:59:54.517Z,24.77
2022-08-27T10:04:04.964Z,25.35
2022-08-27T10:08:20.257Z,26.11
2022-08-27T10:12:56.629Z,26.61
2022-08-27T10:17:17.366Z,27.26
2022-08-27T10:21:41.455Z,27.63
2022-08-27T10:26:09.857Z,27.27
2022-08-27T10:30:16.975Z,27.17
2022-08-27T10:34:52.708Z,27.15
2022-08-27T10:39:09.901Z,26.80
2022-08-27T10:43:49.973Z,27.08
2022-08-27T10:48:19.956Z,27.27
2022-08-27T10:52:23.343Z,27.88
2022-08-27T10:56:35.691Z,27.90
2022-08-27T11:00:48.116Z,29.37
2022-08-27T11:04:56.385Z,31.29
2022-08-27T11:09:07.683Z,32.21
2022-08-27T11:13:13.225Z,32.19
2022-08-27T11:17:36.766Z,31.34
2022-08-27T11:21:47.289Z,30.90
2022-08-27T11:26:02.546Z,32.73
2022-08-27T11:30:19.295Z,34.57
2022-08-27T11:34:39.198Z,34.05
2022-08-27T11:39:03.310Z,32.94
2022-08-27T11:43:09.380Z,32.30
2022-08-27T11:47:24.965Z,32.41
2022-08-27T11:51:39.778Z,32.78
2022-08-27T11:55:39.809Z,31.43
2022-08-27T11:59:37.200Z,31.60
2022-08-27T12:03:37.104Z,33.86
2022-08-27T12:07:39.971Z,34.76
2022-08-27T12:12:10.137Z,36.53
2022-08-27T12:16:40.063Z,36.27
2022-08-27T12:21:06.943Z,34.80
2022-08-27T12:25:04.282Z,31.71
2022-08-27T12:29:32.094Z,28.65
2022-08-27T12:33:40.173Z,27.33
2022-08-27T12:38:03.850Z,26.97
2022-08-27T12:42:01.784Z,27.28
2022-08-27T12:46:08.640Z,27.93
2022-08-27T12:50:07.087Z,29.09
2022-08-27T12:54:44.192Z,30.58
2022-08-27T12:59:08.004Z,30.32
2022-08-27T13:03:26.708Z,29.37
2022-08-27T13:07:33.036Z,30.23
2022-08-27T13:11:56.723Z,32.09
2022-08-27T13:16:01.336Z,31.01
2022-08-27T13:20:01.256Z,30.74
2022-08-27T13:24:04.223Z,30.94
2022-08-27T13:28:13.718Z,30.54
2022-08-27T13:32:14.890Z,30.24
2022-08-27T13:36:12.380Z,30.83
2022-08-27T13:40:26.998Z,29.91
2022-08-27T13:44:41.620Z,29.50
2022-08-27T13:48:51.134Z,30.25
2022-08-27T13:53:09.028Z,31.02
2022-08-27T13:57:11.347Z,31.44
2022-08-27T14:01:16.338Z,30.96
2022-08-27T14:05:25.548Z,30.03
2022-08-27T14:09:30.585Z,29.02
2022-08-27T14:13:30.814Z,28.76
2022-08-27T14:17:38.310Z,28.33
2022-08-27T14:21:40.992Z,28.17
2022-08-27T14:25:38.221Z,28.53
2022-08-27T14:29:36.089Z,28.42
2022-08-27T14:33:33.162Z,28.28
2022-08-27T14:37:30.180Z,29.21
2022-08-27T14:41:27.185Z,30.21
2022-08-27T14:45:24.693Z,30.89
2022-08-27T14:49:32.287Z,31.43
2022-08-27T14:53:29.487Z,32.49
2022-08-27T14:57:26.484Z,32.34
2022-08-27T15:01:26.477Z,32.48
2022-08-27T15:05:25.150Z,31.52
2022-08-27T15:09:22.832Z,31.37
2022-08-27T15:13:19.908Z,30.80
2022-08-27T15:17:33.253Z,30.43
2022-08-27T15:21:33.453Z,30.86
2022-08-27T15:25:30.894Z,30.52
2022-08-27T15:29:27.880Z,31.13
2022-08-27T15:33:25.195Z,31.85
2022-08-27T15:37:23.409Z,32.39
2022-08-27T15:41:21.134Z,31.98
2022-08-27T15:45:18.500Z,31.14
2022-08-27T15:49:15.615Z,30.61
2022-08-27T15:53:12.753Z,30.55
2022-08-27T15:57:10.613Z,30.48
2022-08-27T16:01:17.367Z,30.93
2022-08-27T16:05:15.883Z,30.39
2022-08-27T16:09:12.984Z,29.83
2022-08-27T16:13:10.013Z,29.84
2022-08-27T16:17:07.071Z,29.59
2022-08-27T16:21:07.544Z,28.77
2022-08-27T16:25:07.194Z,28.69
2022-08-27T16:29:05.723Z,29.00
2022-08-27T16:33:03.088Z,29.08
2022-08-27T16:37:00.331Z,28.63
2022-08-27T16:40:57.393Z,28.36
2022-08-27T16:44:54.377Z,27.92
2022-08-27T16:49:09.718Z,27.29
2022-08-27T16:53:16.876Z,27.12
2022-08-27T16:57:13.959Z,26.56
2022-08-27T17:01:15.633Z,26.35
2022-08-27T17:05:33.533Z,26.06
2022-08-27T17:09:29.758Z,25.87
2022-08-27T17:13:32.736Z,25.50
2022-08-27T17:17:30.189Z,24.96
2022-08-27T17:21:30.223Z,24.77
2022-08-27T17:25:29.942Z,24.54
2022-08-27T17:29:27.551Z,24.63
2022-08-27T17:33:38.246Z,24.45
2022-08-27T17:37:35.501Z,24.39
2022-08-27T17:41:40.529Z,24.21
2022-08-27T17:45:37.608Z,23.96
2022-08-27T17:49:36.146Z,23.68
2022-08-27T17:53:33.535Z,23.47
2022-08-27T17:57:40.189Z,23.32
2022-08-27T18:01:40.396Z,23.41
2022-08-27T18:05:37.428Z,23.27
2022-08-27T18:09:34.444Z,23.12
2022-08-27T18:13:37.201Z,22.84
2022-08-27T18:17:35.723Z,22.87
2022-08-27T18:21:32.831Z,22.88
2022-08-27T18:25:36.125Z,22.88
2022-08-27T18:29:33.937Z,22.87
2022-08-27T18:33:31.230Z,22.73
2022-08-27T18:37:28.285Z,22.52
2022-08-27T18:41:29.390Z,22.53
2022-08-27T18:45:28.843Z,22.55
2022-08-27T18:49:26.829Z,22.70
2022-08-27T18:53:25.521Z,22.60
2022-08-27T18:57:23.620Z,22.57
2022-08-27T19:01:26.736Z,22.25
2022-08-27T19:05:26.932Z,22.03
2022-08-27T19:09:26.309Z,21.87
2022-08-27T19:13:23.485Z,21.76
2022-08-27T19:17:29.403Z,21.63
2022-08-27T19:21:27.089Z,21.69
2022-08-27T19:25:24.154Z,21.77
2022-08-27T19:29:21.242Z,21.66
2022-08-27T19:33:18.511Z,21.30
2022-08-27T19:37:24.935Z,21.36
2022-08-27T19:41:26.050Z,21.29
2022-08-27T19:45:24.980Z,21.36
2022-08-27T19:49:23.897Z,21.38
2022-08-27T19:53:20.899Z,21.31
2022-08-27T19:57:17.970Z,21.53
2022-08-27T20:01:15.150Z,21.60
2022-08-27T20:05:19.791Z,21.51
2022-08-27T20:09:18.565Z,21.47
2022-08-27T20:13:15.730Z,21.55
2022-08-27T20:17:13.012Z,21.56
2022-08-27T20:21:09.983Z,21.72
2022-08-27T20:25:08.626Z,21.60
2022-08-27T20:29:06.694Z,21.50
2022-08-27T20:33:03.674Z,21.50
2022-08-27T20:37:05.365Z,21.49
2022-08-27T20:41:02.933Z,21.45
2022-08-27T20:45:00.017Z,21.48
2022-08-27T20:48:57.899Z,21.32
2022-08-27T20:52:55.099Z,21.29
2022-08-27T20:56:52.785Z,20.99
2022-08-27T21:00:53.761Z,21.13
2022-08-27T21:04:51.330Z,21.06
2022-08-27T21:08:48.379Z,20.99
2022-08-27T21:12:45.715Z,20.88
2022-08-27T21:16:42.826Z,20.71
2022-08-27T21:20:41.021Z,20.84
2022-08-27T21:24:38.025Z,20.67
2022-08-27T21:28:35.084Z,20.49
2022-08-27T21:32:32.380Z,20.39
2022-08-27T21:36:29.829Z,20.40
2022-08-27T21:40:29.100Z,20.61
2022-08-27T21:44:26.449Z,20.63
2022-08-27T21:48:24.502Z,20.58
2022-08-27T21:52:21.548Z,20.77
2022-08-27T21:56:18.593Z,20.69
2022-08-27T22:00:40.957Z,20.76
2022-08-27T22:04:41.939Z,20.62
2022-08-27T22:08:39.831Z,20.69
2022-08-27T22:12:39.536Z,20.92
2022-08-27T22:16:36.635Z,20.60
2022-08-27T22:20:34.370Z,20.78
2022-08-27T22:24:31.678Z,20.76
2022-08-27T22:28:29.267Z,20.68
2022-08-27T22:32:26.567Z,20.68
2022-08-27T22:36:23.626Z,20.83
2022-08-27T22:40:24.481Z,20.73
2022-08-27T22:44:24.962Z,20.75
2022-08-27T22:48:22.030Z,20.63
2022-08-27T22:52:19.050Z,20.73
2022-08-27T22:56:16.056Z,20.75
2022-08-27T23:00:19.292Z,20.64
2022-08-27T23:04:16.516Z,20.65
2022-08-27T23:08:14.503Z,20.80
2022-08-27T23:12:11.668Z,20.59
2022-08-27T23:16:09.310Z,20.71
2022-08-27T23:20:09.249Z,20.58
2022-08-27T23:24:06.396Z,20.45
2022-08-27T23:28:06.440Z,20.74
2022-08-27T23:32:04.337Z,20.60
2022-08-27T23:36:01.330Z,20.76
2022-08-27T23:39:59.148Z,20.72
2022-08-27T23:43:57.143Z,20.90
2022-08-27T23:47:54.451Z,20.64
2022-08-27T23:51:51.486Z,20.53
2022-08-27T23:55:48.543Z,20.46
2022-08-27T23:59:45.864Z,20.66
